sensor_id;sensor_type;location;lat;lon;timestamp;temperature;humidity
14471;DHT22;7321;50.802;4.336;2023-03-01T00:01:17;3.10;99.90
14471;DHT22;7321;50.802;4.336;2023-03-01T00:03:43;2.90;99.90
14471;DHT22;7321;50.802;4.336;2023-03-01T00:06:10;2.80;99.90
14471;DHT22;7321;50.802;4.336;2023-03-01T00:08:36;2.80;99.90
14471;DHT22;7321;50.802;4.336;2023-03-01T00:11:19;2.80;99.90
14471;DHT22;7321;50.802;4.336;2023-03-01T00:13:48;2.80;99.90
14471;DHT22;7321;50.802;4.336;2023-03-01T00:16:17;2.90;99.90
14471;DHT22;7321;50.802;4.336;2023-03-01T00:18:43;2.90;99.90
14471;DHT22;7321;50.802;4.336;2023-03-01T00:21:09;2.90;99.90
14471;DHT22;7321;50.802;4.336;2023-03-01T00:23:35;2.80;99.90
14471;DHT22;7321;50.802;4.336;2023-03-01T00:26:01;2.80;99.90
14471;DHT22;7321;50.802;4.336;2023-03-01T00:28:27;3.00;99.90
14471;DHT22;7321;50.802;4.336;2023-03-01T00:30:53;2.90;99.90
14471;DHT22;7321;50.802;4.336;2023-03-01T00:33:19;2.80;99.90
14471;DHT22;7321;50.802;4.336;2023-03-01T00:35:45;2.60;99.90
14471;DHT22;7321;50.802;4.336;2023-03-01T00:38:11;2.60;99.90
14471;DHT22;7321;50.802;4.336;2023-03-01T00:40:36;2.60;99.90
14471;DHT22;7321;50.802;4.336;2023-03-01T00:43:03;2.50;99.90
14471;DHT22;7321;50.802;4.336;2023-03-01T00:45:29;2.50;99.90
14471;DHT22;7321;50.802;4.336;2023-03-01T00:47:56;2.60;99.90
14471;DHT22;7321;50.802;4.336;2023-03-01T00:50:23;2.70;99.90
14471;DHT22;7321;50.802;4.336;2023-03-01T00:52:53;2.70;99.90
14471;DHT22;7321;50.802;4.336;2023-03-01T00:55:19;2.70;99.90
14471;DHT22;7321;50.802;4.336;2023-03-01T00:57:45;2.60;99.90
14471;DHT22;7321;50.802;4.336;2023-03-01T01:00:11;2.60;99.90
14471;DHT22;7321;50.802;4.336;2023-03-01T01:02:37;2.50;99.90
14471;DHT22;7321;50.802;4.336;2023-03-01T01:05:04;2.40;99.90
14471;DHT22;7321;50.802;4.336;2023-03-01T01:07:30;2.50;99.90
14471;DHT22;7321;50.802;4.336;2023-03-01T01:09:56;2.40;99.90
14471;DHT22;7321;50.802;4.336;2023-03-01T01:12:22;2.30;99.90
14471;DHT22;7321;50.802;4.336;2023-03-01T01:14:48;2.10;99.90
14471;DHT22;7321;50.802;4.336;2023-03-01T01:17:14;2.20;99.90
14471;DHT22;7321;50.802;4.336;2023-03-01T01:19:39;2.10;99.90
14471;DHT22;7321;50.802;4.336;2023-03-01T01:22:05;2.10;99.90
14471;DHT22;7321;50.802;4.336;2023-03-01T01:24:31;2.20;99.90
14471;DHT22;7321;50.802;4.336;2023-03-01T01:26:57;2.30;99.90
14471;DHT22;7321;50.802;4.336;2023-03-01T01:29:23;2.30;99.90
14471;DHT22;7321;50.802;4.336;2023-03-01T01:31:48;2.50;99.90
14471;DHT22;7321;50.802;4.336;2023-03-01T01:34:17;2.40;99.90
14471;DHT22;7321;50.802;4.336;2023-03-01T01:36:43;2.40;99.90
14471;DHT22;7321;50.802;4.336;2023-03-01T01:39:10;2.30;99.90
14471;DHT22;7321;50.802;4.336;2023-03-01T01:41:40;2.30;99.90
14471;DHT22;7321;50.802;4.336;2023-03-01T01:44:13;2.30;99.90
14471;DHT22;7321;50.802;4.336;2023-03-01T01:46:41;2.20;99.90
14471;DHT22;7321;50.802;4.336;2023-03-01T01:51:42;2.10;99.90
14471;DHT22;7321;50.802;4.336;2023-03-01T01:54:36;2.10;99.90
14471;DHT22;7321;50.802;4.336;2023-03-01T01:57:07;2.10;99.90
14471;DHT22;7321;50.802;4.336;2023-03-01T01:59:34;2.20;99.90
14471;DHT22;7321;50.802;4.336;2023-03-01T02:02:02;2.20;99.90
14471;DHT22;7321;50.802;4.336;2023-03-01T02:04:30;2.20;99.90
14471;DHT22;7321;50.802;4.336;2023-03-01T02:07:09;2.10;99.90
14471;DHT22;7321;50.802;4.336;2023-03-01T02:09:37;2.10;99.90
14471;DHT22;7321;50.802;4.336;2023-03-01T02:12:04;2.10;99.90
14471;DHT22;7321;50.802;4.336;2023-03-01T02:14:30;2.00;99.90
14471;DHT22;7321;50.802;4.336;2023-03-01T02:16:55;2.00;99.90
14471;DHT22;7321;50.802;4.336;2023-03-01T02:22:28;1.80;99.90
14471;DHT22;7321;50.802;4.336;2023-03-01T02:28:25;1.80;99.90
14471;DHT22;7321;50.802;4.336;2023-03-01T02:30:53;1.80;99.90
14471;DHT22;7321;50.802;4.336;2023-03-01T02:33:39;1.90;99.90
14471;DHT22;7321;50.802;4.336;2023-03-01T02:36:09;2.00;99.90
14471;DHT22;7321;50.802;4.336;2023-03-01T02:38:37;1.90;99.90
14471;DHT22;7321;50.802;4.336;2023-03-01T02:41:04;2.00;99.90
14471;DHT22;7321;50.802;4.336;2023-03-01T02:43:32;1.90;99.90
14471;DHT22;7321;50.802;4.336;2023-03-01T02:46:07;1.90;99.90
14471;DHT22;7321;50.802;4.336;2023-03-01T02:48:53;1.90;99.90
14471;DHT22;7321;50.802;4.336;2023-03-01T02:56:35;2.10;99.90
14471;DHT22;7321;50.802;4.336;2023-03-01T02:59:02;2.00;99.90
14471;DHT22;7321;50.802;4.336;2023-03-01T03:01:29;2.00;99.90
14471;DHT22;7321;50.802;4.336;2023-03-01T03:04:09;2.00;99.90
14471;DHT22;7321;50.802;4.336;2023-03-01T03:06:36;2.00;99.90
14471;DHT22;7321;50.802;4.336;2023-03-01T03:09:03;2.10;99.90
14471;DHT22;7321;50.802;4.336;2023-03-01T03:11:29;2.10;99.90
14471;DHT22;7321;50.802;4.336;2023-03-01T03:13:56;2.10;99.90
14471;DHT22;7321;50.802;4.336;2023-03-01T03:16:23;2.20;99.90
14471;DHT22;7321;50.802;4.336;2023-03-01T03:18:49;2.10;99.90
14471;DHT22;7321;50.802;4.336;2023-03-01T03:21:16;1.90;99.90
14471;DHT22;7321;50.802;4.336;2023-03-01T03:23:43;1.90;99.90
14471;DHT22;7321;50.802;4.336;2023-03-01T03:26:09;1.80;99.90
14471;DHT22;7321;50.802;4.336;2023-03-01T03:28:39;1.70;99.90
14471;DHT22;7321;50.802;4.336;2023-03-01T03:31:06;1.80;99.90
14471;DHT22;7321;50.802;4.336;2023-03-01T03:33:32;1.80;99.90
14471;DHT22;7321;50.802;4.336;2023-03-01T03:35:58;1.70;99.90
14471;DHT22;7321;50.802;4.336;2023-03-01T03:38:24;1.80;99.90
14471;DHT22;7321;50.802;4.336;2023-03-01T03:40:58;1.80;99.90
14471;DHT22;7321;50.802;4.336;2023-03-01T03:43:29;1.80;99.90
14471;DHT22;7321;50.802;4.336;2023-03-01T03:45:55;1.70;99.90
14471;DHT22;7321;50.802;4.336;2023-03-01T03:48:23;1.70;99.90
14471;DHT22;7321;50.802;4.336;2023-03-01T03:50:51;1.50;99.90
14471;DHT22;7321;50.802;4.336;2023-03-01T03:53:18;1.50;99.90
14471;DHT22;7321;50.802;4.336;2023-03-01T03:55:44;1.50;99.90
14471;DHT22;7321;50.802;4.336;2023-03-01T03:58:11;1.50;99.90
14471;DHT22;7321;50.802;4.336;2023-03-01T04:00:39;1.30;99.90
14471;DHT22;7321;50.802;4.336;2023-03-01T04:03:06;1.40;99.90
14471;DHT22;7321;50.802;4.336;2023-03-01T04:05:33;1.40;99.90
14471;DHT22;7321;50.802;4.336;2023-03-01T04:07:59;1.50;99.90
14471;DHT22;7321;50.802;4.336;2023-03-01T04:10:29;1.40;99.90
14471;DHT22;7321;50.802;4.336;2023-03-01T04:12:56;1.40;99.90
14471;DHT22;7321;50.802;4.336;2023-03-01T04:15:24;1.20;99.90
14471;DHT22;7321;50.802;4.336;2023-03-01T04:17:51;1.20;99.90
14471;DHT22;7321;50.802;4.336;2023-03-01T04:20:23;1.20;99.90
14471;DHT22;7321;50.802;4.336;2023-03-01T04:22:57;1.00;99.90
14471;DHT22;7321;50.802;4.336;2023-03-01T04:25:23;1.10;99.90
14471;DHT22;7321;50.802;4.336;2023-03-01T04:27:49;1.30;99.90
14471;DHT22;7321;50.802;4.336;2023-03-01T04:30:15;1.20;99.90
14471;DHT22;7321;50.802;4.336;2023-03-01T04:32:41;1.20;99.90
14471;DHT22;7321;50.802;4.336;2023-03-01T04:35:07;1.00;99.90
14471;DHT22;7321;50.802;4.336;2023-03-01T04:37:33;1.00;99.90
14471;DHT22;7321;50.802;4.336;2023-03-01T04:40:03;1.00;99.90
14471;DHT22;7321;50.802;4.336;2023-03-01T04:42:38;1.00;99.90
14471;DHT22;7321;50.802;4.336;2023-03-01T04:45:05;0.90;99.90
14471;DHT22;7321;50.802;4.336;2023-03-01T04:47:40;0.80;99.90
14471;DHT22;7321;50.802;4.336;2023-03-01T04:50:06;0.90;99.90
14471;DHT22;7321;50.802;4.336;2023-03-01T04:52:33;0.90;99.90
14471;DHT22;7321;50.802;4.336;2023-03-01T04:54:59;1.00;99.90
14471;DHT22;7321;50.802;4.336;2023-03-01T04:57:25;1.00;99.90
14471;DHT22;7321;50.802;4.336;2023-03-01T04:59:51;0.80;99.90
14471;DHT22;7321;50.802;4.336;2023-03-01T05:02:17;0.80;99.90
14471;DHT22;7321;50.802;4.336;2023-03-01T05:04:42;0.90;99.90
14471;DHT22;7321;50.802;4.336;2023-03-01T05:07:08;0.90;99.90
14471;DHT22;7321;50.802;4.336;2023-03-01T05:09:34;0.90;99.90
14471;DHT22;7321;50.802;4.336;2023-03-01T05:12:00;0.80;99.90
14471;DHT22;7321;50.802;4.336;2023-03-01T05:14:26;0.90;99.90
14471;DHT22;7321;50.802;4.336;2023-03-01T05:16:51;0.90;99.90
14471;DHT22;7321;50.802;4.336;2023-03-01T05:19:17;0.80;99.90
14471;DHT22;7321;50.802;4.336;2023-03-01T05:21:48;0.70;99.90
14471;DHT22;7321;50.802;4.336;2023-03-01T05:24:34;0.80;99.90
14471;DHT22;7321;50.802;4.336;2023-03-01T05:27:02;0.80;99.90
14471;DHT22;7321;50.802;4.336;2023-03-01T05:29:30;0.80;99.90
14471;DHT22;7321;50.802;4.336;2023-03-01T05:31:58;0.90;99.90
14471;DHT22;7321;50.802;4.336;2023-03-01T05:34:29;0.90;99.90
14471;DHT22;7321;50.802;4.336;2023-03-01T05:36:56;0.80;99.90
14471;DHT22;7321;50.802;4.336;2023-03-01T05:39:24;0.60;99.90
14471;DHT22;7321;50.802;4.336;2023-03-01T05:41:58;0.60;99.90
14471;DHT22;7321;50.802;4.336;2023-03-01T05:44:25;0.60;99.90
14471;DHT22;7321;50.802;4.336;2023-03-01T05:46:51;0.60;99.90
14471;DHT22;7321;50.802;4.336;2023-03-01T05:49:18;0.50;99.90
14471;DHT22;7321;50.802;4.336;2023-03-01T05:51:48;0.50;99.90
14471;DHT22;7321;50.802;4.336;2023-03-01T05:54:14;0.60;99.90
14471;DHT22;7321;50.802;4.336;2023-03-01T05:56:40;0.60;99.90
14471;DHT22;7321;50.802;4.336;2023-03-01T05:59:06;0.70;99.90
14471;DHT22;7321;50.802;4.336;2023-03-01T06:01:33;0.70;99.90
14471;DHT22;7321;50.802;4.336;2023-03-01T06:03:59;0.70;99.90
14471;DHT22;7321;50.802;4.336;2023-03-01T06:06:25;0.70;99.90
14471;DHT22;7321;50.802;4.336;2023-03-01T06:08:52;0.70;99.90
14471;DHT22;7321;50.802;4.336;2023-03-01T06:11:19;0.70;99.90
14471;DHT22;7321;50.802;4.336;2023-03-01T06:13:45;0.70;99.90
14471;DHT22;7321;50.802;4.336;2023-03-01T06:16:12;0.70;99.90
14471;DHT22;7321;50.802;4.336;2023-03-01T06:18:39;0.60;99.90
14471;DHT22;7321;50.802;4.336;2023-03-01T06:21:06;0.60;99.90
14471;DHT22;7321;50.802;4.336;2023-03-01T06:23:32;0.70;99.90
14471;DHT22;7321;50.802;4.336;2023-03-01T06:25:58;0.70;99.90
14471;DHT22;7321;50.802;4.336;2023-03-01T06:28:24;0.60;99.90
14471;DHT22;7321;50.802;4.336;2023-03-01T06:30:51;0.50;99.90
14471;DHT22;7321;50.802;4.336;2023-03-01T06:33:18;0.60;99.90
14471;DHT22;7321;50.802;4.336;2023-03-01T06:35:46;0.50;99.90
14471;DHT22;7321;50.802;4.336;2023-03-01T06:38:12;0.50;99.90
14471;DHT22;7321;50.802;4.336;2023-03-01T06:40:40;0.60;99.90
14471;DHT22;7321;50.802;4.336;2023-03-01T06:43:07;0.50;99.90
14471;DHT22;7321;50.802;4.336;2023-03-01T06:45:33;0.50;99.90
14471;DHT22;7321;50.802;4.336;2023-03-01T06:48:06;0.40;99.90
14471;DHT22;7321;50.802;4.336;2023-03-01T06:50:35;0.40;99.90
14471;DHT22;7321;50.802;4.336;2023-03-01T06:53:01;0.50;99.90
14471;DHT22;7321;50.802;4.336;2023-03-01T06:55:28;0.50;99.90
14471;DHT22;7321;50.802;4.336;2023-03-01T06:57:58;0.60;99.90
14471;DHT22;7321;50.802;4.336;2023-03-01T07:00:25;0.50;99.90
14471;DHT22;7321;50.802;4.336;2023-03-01T07:02:51;0.50;99.90
14471;DHT22;7321;50.802;4.336;2023-03-01T07:05:17;0.60;99.90
14471;DHT22;7321;50.802;4.336;2023-03-01T07:07:43;0.60;99.90
14471;DHT22;7321;50.802;4.336;2023-03-01T07:10:09;0.60;99.90
14471;DHT22;7321;50.802;4.336;2023-03-01T07:12:36;0.70;99.90
14471;DHT22;7321;50.802;4.336;2023-03-01T07:15:01;0.80;99.90
14471;DHT22;7321;50.802;4.336;2023-03-01T07:17:27;0.90;99.90
14471;DHT22;7321;50.802;4.336;2023-03-01T07:19:53;0.90;99.90
14471;DHT22;7321;50.802;4.336;2023-03-01T07:22:19;0.90;99.90
14471;DHT22;7321;50.802;4.336;2023-03-01T07:24:45;0.90;99.90
14471;DHT22;7321;50.802;4.336;2023-03-01T07:27:11;0.90;99.90
14471;DHT22;7321;50.802;4.336;2023-03-01T07:29:36;0.90;99.90
14471;DHT22;7321;50.802;4.336;2023-03-01T07:32:03;1.00;99.90
14471;DHT22;7321;50.802;4.336;2023-03-01T07:34:30;1.00;99.90
14471;DHT22;7321;50.802;4.336;2023-03-01T07:36:55;0.90;99.90
14471;DHT22;7321;50.802;4.336;2023-03-01T07:39:21;0.70;99.90
14471;DHT22;7321;50.802;4.336;2023-03-01T07:41:49;0.80;99.90
14471;DHT22;7321;50.802;4.336;2023-03-01T07:44:15;0.80;99.90
14471;DHT22;7321;50.802;4.336;2023-03-01T07:46:43;0.80;99.90
14471;DHT22;7321;50.802;4.336;2023-03-01T07:49:09;0.80;99.90
14471;DHT22;7321;50.802;4.336;2023-03-01T07:51:35;0.80;99.90
14471;DHT22;7321;50.802;4.336;2023-03-01T07:54:01;0.90;99.90
14471;DHT22;7321;50.802;4.336;2023-03-01T07:56:27;1.10;99.90
14471;DHT22;7321;50.802;4.336;2023-03-01T07:58:53;1.20;99.90
14471;DHT22;7321;50.802;4.336;2023-03-01T08:01:20;1.30;99.90
14471;DHT22;7321;50.802;4.336;2023-03-01T08:03:46;1.30;99.90
14471;DHT22;7321;50.802;4.336;2023-03-01T08:06:14;1.40;99.90
14471;DHT22;7321;50.802;4.336;2023-03-01T08:08:40;1.40;99.90
14471;DHT22;7321;50.802;4.336;2023-03-01T08:11:07;1.50;99.90
14471;DHT22;7321;50.802;4.336;2023-03-01T08:13:34;1.60;99.90
14471;DHT22;7321;50.802;4.336;2023-03-01T08:16:04;1.70;99.90
14471;DHT22;7321;50.802;4.336;2023-03-01T08:18:31;1.80;99.90
14471;DHT22;7321;50.802;4.336;2023-03-01T08:21:05;2.00;99.90
14471;DHT22;7321;50.802;4.336;2023-03-01T08:23:31;1.90;99.90
14471;DHT22;7321;50.802;4.336;2023-03-01T08:26:07;2.00;99.90
14471;DHT22;7321;50.802;4.336;2023-03-01T08:28:34;2.10;99.90
14471;DHT22;7321;50.802;4.336;2023-03-01T08:31:00;2.10;99.90
14471;DHT22;7321;50.802;4.336;2023-03-01T08:33:25;2.10;99.90
14471;DHT22;7321;50.802;4.336;2023-03-01T08:35:51;2.20;99.90
14471;DHT22;7321;50.802;4.336;2023-03-01T08:38:17;2.20;99.90
14471;DHT22;7321;50.802;4.336;2023-03-01T08:40:43;2.20;99.90
14471;DHT22;7321;50.802;4.336;2023-03-01T08:43:09;2.30;99.90
14471;DHT22;7321;50.802;4.336;2023-03-01T08:45:34;2.60;99.90
14471;DHT22;7321;50.802;4.336;2023-03-01T08:48:00;2.60;99.90
14471;DHT22;7321;50.802;4.336;2023-03-01T08:50:26;2.70;99.90
14471;DHT22;7321;50.802;4.336;2023-03-01T08:52:52;2.60;99.90
14471;DHT22;7321;50.802;4.336;2023-03-01T08:55:17;2.80;99.90
14471;DHT22;7321;50.802;4.336;2023-03-01T08:57:43;3.10;99.90
14471;DHT22;7321;50.802;4.336;2023-03-01T09:00:10;3.30;99.90
14471;DHT22;7321;50.802;4.336;2023-03-01T09:02:40;3.60;99.90
14471;DHT22;7321;50.802;4.336;2023-03-01T09:05:06;3.60;99.90
14471;DHT22;7321;50.802;4.336;2023-03-01T09:07:32;3.40;99.90
14471;DHT22;7321;50.802;4.336;2023-03-01T09:09:59;3.20;99.90
14471;DHT22;7321;50.802;4.336;2023-03-01T09:12:24;3.10;99.90
14471;DHT22;7321;50.802;4.336;2023-03-01T09:14:50;3.10;99.90
14471;DHT22;7321;50.802;4.336;2023-03-01T09:17:16;3.10;99.90
14471;DHT22;7321;50.802;4.336;2023-03-01T09:19:42;3.00;99.90
14471;DHT22;7321;50.802;4.336;2023-03-01T09:22:08;3.10;99.90
14471;DHT22;7321;50.802;4.336;2023-03-01T09:24:33;3.20;99.90
14471;DHT22;7321;50.802;4.336;2023-03-01T09:26:59;3.20;99.90
14471;DHT22;7321;50.802;4.336;2023-03-01T09:29:25;3.20;99.90
14471;DHT22;7321;50.802;4.336;2023-03-01T09:31:51;3.30;99.90
14471;DHT22;7321;50.802;4.336;2023-03-01T09:34:21;3.20;99.90
14471;DHT22;7321;50.802;4.336;2023-03-01T09:36:49;3.00;99.90
14471;DHT22;7321;50.802;4.336;2023-03-01T09:39:16;2.90;99.90
14471;DHT22;7321;50.802;4.336;2023-03-01T09:46:53;3.30;99.90
14471;DHT22;7321;50.802;4.336;2023-03-01T09:49:23;3.40;99.90
14471;DHT22;7321;50.802;4.336;2023-03-01T09:52:33;3.40;99.90
14471;DHT22;7321;50.802;4.336;2023-03-01T09:55:00;3.40;99.90
14471;DHT22;7321;50.802;4.336;2023-03-01T09:57:28;3.50;99.90
14471;DHT22;7321;50.802;4.336;2023-03-01T10:02:44;4.10;99.90
14471;DHT22;7321;50.802;4.336;2023-03-01T10:05:31;4.30;99.90
14471;DHT22;7321;50.802;4.336;2023-03-01T10:10:38;4.50;99.90
14471;DHT22;7321;50.802;4.336;2023-03-01T10:13:17;4.50;99.90
14471;DHT22;7321;50.802;4.336;2023-03-01T10:16:11;4.50;99.90
14471;DHT22;7321;50.802;4.336;2023-03-01T10:18:35;4.50;99.90
14471;DHT22;7321;50.802;4.336;2023-03-01T10:21:16;4.60;99.90
14471;DHT22;7321;50.802;4.336;2023-03-01T10:23:42;4.50;99.90
14471;DHT22;7321;50.802;4.336;2023-03-01T10:29:05;4.40;99.90
14471;DHT22;7321;50.802;4.336;2023-03-01T10:31:46;4.40;99.90
14471;DHT22;7321;50.802;4.336;2023-03-01T10:36:46;4.20;99.90
14471;DHT22;7321;50.802;4.336;2023-03-01T10:39:24;4.20;99.90
14471;DHT22;7321;50.802;4.336;2023-03-01T10:42:05;4.30;99.90
14471;DHT22;7321;50.802;4.336;2023-03-01T10:44:51;4.40;99.90
14471;DHT22;7321;50.802;4.336;2023-03-01T10:47:26;4.50;99.90
14471;DHT22;7321;50.802;4.336;2023-03-01T10:49:57;4.60;99.90
14471;DHT22;7321;50.802;4.336;2023-03-01T10:52:26;4.60;99.90
14471;DHT22;7321;50.802;4.336;2023-03-01T10:54:55;4.60;99.90
14471;DHT22;7321;50.802;4.336;2023-03-01T10:57:36;4.70;99.90
14471;DHT22;7321;50.802;4.336;2023-03-01T11:02:51;4.70;99.90
14471;DHT22;7321;50.802;4.336;2023-03-01T11:05:26;4.80;99.90
14471;DHT22;7321;50.802;4.336;2023-03-01T11:07:59;4.90;99.90
14471;DHT22;7321;50.802;4.336;2023-03-01T11:10:32;5.00;99.90
14471;DHT22;7321;50.802;4.336;2023-03-01T11:13:18;5.30;99.90
14471;DHT22;7321;50.802;4.336;2023-03-01T11:16:09;5.40;99.90
14471;DHT22;7321;50.802;4.336;2023-03-01T11:18:37;5.40;99.90
14471;DHT22;7321;50.802;4.336;2023-03-01T11:21:03;5.40;99.90
14471;DHT22;7321;50.802;4.336;2023-03-01T11:23:30;5.40;99.90
14471;DHT22;7321;50.802;4.336;2023-03-01T11:26:07;5.60;99.90
14471;DHT22;7321;50.802;4.336;2023-03-01T11:28:37;5.60;99.90
14471;DHT22;7321;50.802;4.336;2023-03-01T11:31:07;5.40;99.90
14471;DHT22;7321;50.802;4.336;2023-03-01T11:33:54;5.30;99.90
14471;DHT22;7321;50.802;4.336;2023-03-01T11:36:30;5.40;99.90
14471;DHT22;7321;50.802;4.336;2023-03-01T11:39:04;5.40;99.90
14471;DHT22;7321;50.802;4.336;2023-03-01T11:41:36;5.60;99.90
14471;DHT22;7321;50.802;4.336;2023-03-01T11:44:21;5.70;99.90
14471;DHT22;7321;50.802;4.336;2023-03-01T11:47:40;5.60;99.90
14471;DHT22;7321;50.802;4.336;2023-03-01T12:10:27;6.10;99.90
14471;DHT22;7321;50.802;4.336;2023-03-01T12:15:59;5.90;99.90
14471;DHT22;7321;50.802;4.336;2023-03-01T12:18:49;5.90;99.90
14471;DHT22;7321;50.802;4.336;2023-03-01T12:30:17;6.30;99.90
14471;DHT22;7321;50.802;4.336;2023-03-01T12:35:46;6.70;99.90
14471;DHT22;7321;50.802;4.336;2023-03-01T12:49:31;6.90;99.90
14471;DHT22;7321;50.802;4.336;2023-03-01T12:52:08;6.90;99.90
14471;DHT22;7321;50.802;4.336;2023-03-01T12:54:36;6.90;99.90
14471;DHT22;7321;50.802;4.336;2023-03-01T12:57:40;7.10;99.90
14471;DHT22;7321;50.802;4.336;2023-03-01T13:03:02;7.00;99.90
14471;DHT22;7321;50.802;4.336;2023-03-01T13:11:17;7.20;99.90
14471;DHT22;7321;50.802;4.336;2023-03-01T13:13:44;7.10;99.90
14471;DHT22;7321;50.802;4.336;2023-03-01T13:19:26;7.10;99.90
14471;DHT22;7321;50.802;4.336;2023-03-01T13:21:55;7.20;99.90
14471;DHT22;7321;50.802;4.336;2023-03-01T13:24:29;7.30;99.90
14471;DHT22;7321;50.802;4.336;2023-03-01T13:29:48;6.90;99.90
14471;DHT22;7321;50.802;4.336;2023-03-01T13:32:24;7.00;99.90
14471;DHT22;7321;50.802;4.336;2023-03-01T13:37:34;7.10;99.90
14471;DHT22;7321;50.802;4.336;2023-03-01T13:40:08;7.20;99.90
14471;DHT22;7321;50.802;4.336;2023-03-01T13:42:56;7.30;99.90
14471;DHT22;7321;50.802;4.336;2023-03-01T13:45:35;7.40;99.90
14471;DHT22;7321;50.802;4.336;2023-03-01T13:48:11;7.40;99.90
14471;DHT22;7321;50.802;4.336;2023-03-01T13:50:50;7.50;99.90
14471;DHT22;7321;50.802;4.336;2023-03-01T13:53:19;7.60;99.90
14471;DHT22;7321;50.802;4.336;2023-03-01T13:55:48;7.60;99.90
14471;DHT22;7321;50.802;4.336;2023-03-01T13:58:26;7.60;99.90
14471;DHT22;7321;50.802;4.336;2023-03-01T14:03:24;7.30;99.90
14471;DHT22;7321;50.802;4.336;2023-03-01T14:08:36;7.40;99.90
14471;DHT22;7321;50.802;4.336;2023-03-01T14:19:27;7.30;99.90
14471;DHT22;7321;50.802;4.336;2023-03-01T14:24:30;7.20;99.90
14471;DHT22;7321;50.802;4.336;2023-03-01T14:27:00;7.00;99.90
14471;DHT22;7321;50.802;4.336;2023-03-01T14:29:35;7.00;99.90
14471;DHT22;7321;50.802;4.336;2023-03-01T14:32:12;7.10;99.90
14471;DHT22;7321;50.802;4.336;2023-03-01T14:34:48;7.20;99.90
14471;DHT22;7321;50.802;4.336;2023-03-01T14:37:32;7.30;99.90
14471;DHT22;7321;50.802;4.336;2023-03-01T14:39:59;7.50;99.90
14471;DHT22;7321;50.802;4.336;2023-03-01T14:42:29;7.50;99.90
14471;DHT22;7321;50.802;4.336;2023-03-01T14:44:57;7.60;99.90
14471;DHT22;7321;50.802;4.336;2023-03-01T14:47:34;7.70;99.90
14471;DHT22;7321;50.802;4.336;2023-03-01T14:52:48;7.80;99.90
14471;DHT22;7321;50.802;4.336;2023-03-01T14:55:27;7.70;99.90
14471;DHT22;7321;50.802;4.336;2023-03-01T14:57:54;7.60;99.90
14471;DHT22;7321;50.802;4.336;2023-03-01T15:00:26;7.60;99.90
14471;DHT22;7321;50.802;4.336;2023-03-01T15:02:54;7.50;99.90
14471;DHT22;7321;50.802;4.336;2023-03-01T15:05:31;7.50;99.90
14471;DHT22;7321;50.802;4.336;2023-03-01T15:07:58;7.40;99.90
14471;DHT22;7321;50.802;4.336;2023-03-01T15:10:31;7.30;99.90
14471;DHT22;7321;50.802;4.336;2023-03-01T15:13:14;7.30;99.90
14471;DHT22;7321;50.802;4.336;2023-03-01T15:15:47;7.40;99.90
14471;DHT22;7321;50.802;4.336;2023-03-01T15:18:22;7.50;99.90
14471;DHT22;7321;50.802;4.336;2023-03-01T15:20:52;7.60;99.90
14471;DHT22;7321;50.802;4.336;2023-03-01T15:23:26;7.70;99.90
14471;DHT22;7321;50.802;4.336;2023-03-01T15:25:54;7.60;99.90
14471;DHT22;7321;50.802;4.336;2023-03-01T15:28:49;7.60;99.90
14471;DHT22;7321;50.802;4.336;2023-03-01T15:31:22;7.60;99.90
14471;DHT22;7321;50.802;4.336;2023-03-01T15:33:49;7.40;99.90
14471;DHT22;7321;50.802;4.336;2023-03-01T15:36:37;7.40;99.90
14471;DHT22;7321;50.802;4.336;2023-03-01T15:41:50;7.40;99.90
14471;DHT22;7321;50.802;4.336;2023-03-01T15:44:30;7.50;99.90
14471;DHT22;7321;50.802;4.336;2023-03-01T15:46:59;7.50;99.90
14471;DHT22;7321;50.802;4.336;2023-03-01T15:52:00;7.50;99.90
14471;DHT22;7321;50.802;4.336;2023-03-01T15:54:27;7.30;99.90
14471;DHT22;7321;50.802;4.336;2023-03-01T15:56:53;7.30;99.90
14471;DHT22;7321;50.802;4.336;2023-03-01T15:59:19;7.30;99.90
14471;DHT22;7321;50.802;4.336;2023-03-01T16:01:48;7.30;99.90
14471;DHT22;7321;50.802;4.336;2023-03-01T16:04:16;7.40;99.90
14471;DHT22;7321;50.802;4.336;2023-03-01T16:06:52;7.10;99.90
14471;DHT22;7321;50.802;4.336;2023-03-01T16:09:25;7.00;99.90
14471;DHT22;7321;50.802;4.336;2023-03-01T16:11:51;7.00;99.90
14471;DHT22;7321;50.802;4.336;2023-03-01T16:14:18;7.00;99.90
14471;DHT22;7321;50.802;4.336;2023-03-01T16:16:45;7.10;99.90
14471;DHT22;7321;50.802;4.336;2023-03-01T16:19:11;7.10;99.90
14471;DHT22;7321;50.802;4.336;2023-03-01T16:21:40;7.10;99.90
14471;DHT22;7321;50.802;4.336;2023-03-01T16:24:06;7.20;99.90
14471;DHT22;7321;50.802;4.336;2023-03-01T16:26:32;7.10;99.90
14471;DHT22;7321;50.802;4.336;2023-03-01T16:28:58;7.00;99.90
14471;DHT22;7321;50.802;4.336;2023-03-01T16:31:24;7.20;99.90
14471;DHT22;7321;50.802;4.336;2023-03-01T16:33:57;7.30;99.90
14471;DHT22;7321;50.802;4.336;2023-03-01T16:36:24;7.20;99.90
14471;DHT22;7321;50.802;4.336;2023-03-01T16:38:51;7.10;99.90
14471;DHT22;7321;50.802;4.336;2023-03-01T16:41:19;7.10;99.90
14471;DHT22;7321;50.802;4.336;2023-03-01T16:43:46;7.10;99.90
14471;DHT22;7321;50.802;4.336;2023-03-01T16:46:13;7.10;99.90
14471;DHT22;7321;50.802;4.336;2023-03-01T16:48:39;7.20;99.90
14471;DHT22;7321;50.802;4.336;2023-03-01T16:51:06;7.10;99.90
14471;DHT22;7321;50.802;4.336;2023-03-01T16:53:33;7.10;99.90
14471;DHT22;7321;50.802;4.336;2023-03-01T16:56:02;7.20;99.90
14471;DHT22;7321;50.802;4.336;2023-03-01T16:58:28;7.20;99.90
14471;DHT22;7321;50.802;4.336;2023-03-01T17:00:55;7.20;99.90
14471;DHT22;7321;50.802;4.336;2023-03-01T17:03:23;7.10;99.90
14471;DHT22;7321;50.802;4.336;2023-03-01T17:05:49;7.10;99.90
14471;DHT22;7321;50.802;4.336;2023-03-01T17:08:16;7.00;99.90
14471;DHT22;7321;50.802;4.336;2023-03-01T17:10:43;7.00;99.90
14471;DHT22;7321;50.802;4.336;2023-03-01T17:13:10;6.90;99.90
14471;DHT22;7321;50.802;4.336;2023-03-01T17:15:42;7.00;99.90
14471;DHT22;7321;50.802;4.336;2023-03-01T17:18:09;7.00;99.90
14471;DHT22;7321;50.802;4.336;2023-03-01T17:20:35;7.00;99.90
14471;DHT22;7321;50.802;4.336;2023-03-01T17:23:02;7.10;99.90
14471;DHT22;7321;50.802;4.336;2023-03-01T17:25:28;7.10;99.90
14471;DHT22;7321;50.802;4.336;2023-03-01T17:27:54;7.10;99.90
14471;DHT22;7321;50.802;4.336;2023-03-01T17:30:20;7.10;99.90
14471;DHT22;7321;50.802;4.336;2023-03-01T17:32:46;7.00;99.90
14471;DHT22;7321;50.802;4.336;2023-03-01T17:35:12;6.90;99.90
14471;DHT22;7321;50.802;4.336;2023-03-01T17:37:38;7.00;99.90
14471;DHT22;7321;50.802;4.336;2023-03-01T17:40:05;7.00;99.90
14471;DHT22;7321;50.802;4.336;2023-03-01T17:42:31;6.90;99.90
14471;DHT22;7321;50.802;4.336;2023-03-01T17:44:57;6.80;99.90
14471;DHT22;7321;50.802;4.336;2023-03-01T17:47:25;6.80;99.90
14471;DHT22;7321;50.802;4.336;2023-03-01T17:49:51;6.90;99.90
14471;DHT22;7321;50.802;4.336;2023-03-01T17:52:16;6.80;99.90
14471;DHT22;7321;50.802;4.336;2023-03-01T17:54:42;6.70;99.90
14471;DHT22;7321;50.802;4.336;2023-03-01T17:57:08;6.60;99.90
14471;DHT22;7321;50.802;4.336;2023-03-01T17:59:37;6.60;99.90
14471;DHT22;7321;50.802;4.336;2023-03-01T18:02:03;6.60;99.90
14471;DHT22;7321;50.802;4.336;2023-03-01T18:04:29;6.50;99.90
14471;DHT22;7321;50.802;4.336;2023-03-01T18:06:54;6.40;99.90
14471;DHT22;7321;50.802;4.336;2023-03-01T18:09:20;6.50;99.90
14471;DHT22;7321;50.802;4.336;2023-03-01T18:11:46;6.50;99.90
14471;DHT22;7321;50.802;4.336;2023-03-01T18:14:12;6.50;99.90
14471;DHT22;7321;50.802;4.336;2023-03-01T18:16:38;6.40;99.90